< Typhoon 198127 1981 Season Typhoon 198129 >
Typhoon 198128 (KIT)
General InformationTrack Information on Google MapsDetailed Wind InformationList of All Images || Disaster Info.ResourceGoogle EarthGE AnimationAtom FeedGeoJSON
Detalied Best Track (Time Zone = UTC)
Year Month Day Hour Lat. Long. Pressure (hPa) Wind (kt) Class Image Chart
1981 12 9 18 8.0 148.0 1006 0 2 Image Chart
1981 12 10 00 8.0 148.0 1006 0 2 Image Chart
1981 12 10 06 8.5 148.0 1004 0 2 Image Chart
1981 12 10 12 8.9 147.9 1004 0 2 Image Chart
1981 12 10 18 9.3 147.8 1000 0 2 Image Chart
1981 12 11 00 9.7 147.7 1000 0 2 Image Chart
1981 12 11 06 10.2 147.8 994 35 3 Image Chart
1981 12 11 12 10.4 147.8 992 40 3 Image Chart
1981 12 11 18 10.7 147.6 990 50 4 Image Chart
1981 12 12 00 11.0 147.3 990 50 4 Image Chart
1981 12 12 06 11.3 147.2 990 50 4 Image Chart
1981 12 12 12 11.5 146.8 990 50 4 Image Chart
1981 12 12 18 11.8 146.3 990 50 4 Image Chart
1981 12 13 00 12.0 145.7 990 55 4 Image Chart
1981 12 13 06 12.1 144.7 990 55 4 Image Chart
1981 12 13 12 12.3 143.7 990 55 4 Image Chart
1981 12 13 18 12.5 143.0 985 55 4 Image Chart
1981 12 14 00 12.7 142.3 980 65 5 Image Chart
1981 12 14 06 13.1 142.0 975 70 5 Image Chart
1981 12 14 12 13.6 141.8 970 70 5 Image Chart
1981 12 14 18 14.2 141.6 965 75 5 Image Chart
1981 12 15 00 14.6 141.5 960 75 5 Image Chart
1981 12 15 06 14.9 141.4 945 90 5 Image Chart
1981 12 15 12 15.2 141.2 945 90 5 Image Chart
1981 12 15 18 15.4 140.9 945 90 5 Image Chart
1981 12 16 00 15.4 140.5 945 90 5 Image Chart
1981 12 16 06 15.3 140.0 950 90 5 Image Chart
1981 12 16 12 15.3 139.2 950 90 5 Image Chart
1981 12 16 18 15.2 138.4 945 90 5 Image Chart
1981 12 17 00 15.3 137.5 935 95 5 Image Chart
1981 12 17 06 15.5 136.8 930 95 5 Image Chart
1981 12 17 12 15.8 136.2 925 100 5 Image Chart
1981 12 17 18 16.0 135.6 935 100 5 Image Chart
1981 12 18 00 16.1 135.0 945 95 5 Image Chart
1981 12 18 06 16.1 134.4 950 90 5 Image Chart
1981 12 18 12 16.1 133.6 960 75 5 Image Chart
1981 12 18 18 16.0 132.7 970 75 5 Image Chart
1981 12 19 00 15.9 131.8 975 70 5 Image Chart
1981 12 19 06 16.0 131.2 975 65 5 Image Chart
1981 12 19 12 16.1 130.8 980 65 5 Image Chart
1981 12 19 18 16.2 130.5 990 50 4 Image Chart
1981 12 20 00 16.1 130.1 994 45 3 Image Chart
1981 12 20 06 15.1 130.4 996 45 3 Image Chart
1981 12 20 12 14.0 130.2 998 40 3 Image Chart
1981 12 20 18 13.0 129.8 1004 0 2 Image Chart
1981 12 21 00 12.0 129.5 1008 0 2 Image Chart
1981 12 21 06 11.0 129.0 1008 0 2 Image Chart
1981 12 21 12 10.0 128.0 1008 0 2 Image Chart
1981 12 21 18 9.5 127.5 1008 0 2 Image Chart
1981 12 22 00 9.0 127.0 1010 0 2 Image Chart
1981 12 22 06 8.0 126.0 1008 0 2 Image Chart
1981 12 22 12 7.0 125.0 1008 0 2 Image Chart
1981 12 22 18 6.5 124.0 1008 0 2 Image Chart
Japan Meteorological Agency Best Track Data | Correction Date : 1992-10-21
< Typhoon 198127 1981 Season Typhoon 198129 >

Help